Time;durP1;ratioP1;P1;durP2;ratioP2;P2;SDS_P1;SDS_P2;PMS_P1;PMS_P2;Temp;Humidity;BMP_temperature;BMP_pressure;BME280_temperature;BME280_humidity;BME280_pressure;Samples;Min_cycle;Max_cycle;Signal;HPM_P1;HPM_P2
2021/01/04 00:00:17;;;;;;;;;;;;;;;-2.62;95.00;92310.72;1061435;56;20259;-84
2021/01/04 00:01:36;;;;;;;;;;;;;;;-2.66;94.18;92312.53;1057563;56;20640;-85
2021/01/04 00:02:37;;;;;;;;;;;;;;;-2.65;94.34;92306.94;1062913;55;20196;-83
2021/01/04 00:03:40;;;;;;;;;;;;;;;-2.68;94.27;92309.50;1066105;55;22040;-84
2021/01/04 00:04:54;;;;;;;;;;;;;;;-2.72;94.17;92311.31;1061474;56;20166;-85
2021/01/04 00:06:08;;;;;;;;;;;;;;;-2.70;94.71;92306.50;1061845;56;20217;-85
2021/01/04 00:07:10;;;;;;;;;;;;;;;-2.72;95.55;92306.84;1064212;55;20165;-82
2021/01/04 00:08:13;;;;;;;;;;;;;;;-2.72;95.29;92309.47;1061446;56;20165;-83
2021/01/04 00:09:23;;;;;;;;;;;;;;;-2.70;95.34;92311.72;1057357;56;20209;-84
2021/01/04 00:10:35;;;;;;;;;;;;;;;-2.73;95.51;92313.16;1060120;56;20187;-83
2021/01/04 00:11:35;;;;;;;;;;;;;;;-2.66;95.06;92309.91;1063989;55;20174;-85
2021/01/04 00:12:56;;;;;;;;;;;;;;;-2.67;95.60;92314.38;1063688;55;20170;-82
2021/01/04 00:13:58;;;;;;;;;;;;;;;-2.73;95.50;92320.25;1064520;55;20258;-82
2021/01/04 00:15:07;;;;;;;;;;;;;;;-2.73;95.17;92318.41;1063574;55;20700;-83
2021/01/04 00:16:18;;;;;;;;;;;;;;;-2.66;95.49;92321.13;1061723;56;20161;-84
2021/01/04 00:17:27;;;;;;;;;;;;;;;-2.74;95.70;92321.38;1057735;56;20706;-83
2021/01/04 00:18:53;;;;;;;;;;;;;;;-2.83;95.86;92317.13;1060029;56;20702;-82
2021/01/04 00:20:15;;;;;;;;;;;;;;;-2.66;96.00;92315.91;1064458;55;20256;-84
2021/01/04 00:21:43;;;;;;;;;;;;;;;-2.42;94.11;92313.97;1062135;56;20162;-84
2021/01/04 00:22:49;;;;;;;;;;;;;;;-2.51;93.78;92319.47;1057014;56;20197;-84
2021/01/04 00:23:55;;;;;;;;;;;;;;;-2.51;93.67;92323.94;1059781;56;20658;-83
2021/01/04 00:25:08;;;;;;;;;;;;;;;-2.42;93.76;92319.19;1061677;56;20196;-83
2021/01/04 00:26:12;;;;;;;;;;;;;;;-2.46;93.95;92321.75;1061366;56;20193;-84
2021/01/04 00:27:32;;;;;;;;;;;;;;;-2.61;93.90;92320.06;1059650;56;20268;-83
2021/01/04 00:28:34;;;;;;;;;;;;;;;-2.53;94.75;92311.97;1059515;56;20158;-83
2021/01/04 00:29:35;;;;;;;;;;;;;;;-2.57;93.74;92313.78;1059341;56;20280;-83
2021/01/04 00:30:42;;;;;;;;;;;;;;;-2.64;94.04;92316.28;1059278;56;20661;-83
2021/01/04 00:31:45;;;;;;;;;;;;;;;-2.72;94.35;92314.69;1061688;56;20170;-83
2021/01/04 00:32:47;;;;;;;;;;;;;;;-2.74;95.03;92311.66;1061482;56;20967;-84
2021/01/04 00:33:52;;;;;;;;;;;;;;;-2.79;94.71;92304.13;1059508;56;20202;-85
2021/01/04 00:34:53;;;;;;;;;;;;;;;-2.73;94.81;92313.16;1063574;55;20239;-82
2021/01/04 00:35:58;;;;;;;;;;;;;;;-2.75;95.14;92307.53;1063535;56;20154;-84
2021/01/04 00:37:17;;;;;;;;;;;;;;;-2.73;95.39;92307.19;1061732;55;20181;-85
2021/01/04 00:38:18;;;;;;;;;;;;;;;-2.68;95.51;92314.72;1065654;55;20192;-84
2021/01/04 00:39:19;;;;;;;;;;;;;;;-2.79;95.33;92306.75;1065688;55;20157;-83
2021/01/04 00:40:19;;;;;;;;;;;;;;;-2.80;95.76;92310.47;1063562;56;20169;-84
2021/01/04 00:41:23;;;;;;;;;;;;;;;-2.78;95.03;92311.59;1063474;56;20181;-83
2021/01/04 00:42:35;;;;;;;;;;;;;;;-2.73;95.38;92313.16;1061460;56;20208;-84
2021/01/04 00:43:44;;;;;;;;;;;;;;;-2.79;95.63;92307.50;1061438;56;20185;-83
2021/01/04 00:44:48;;;;;;;;;;;;;;;-2.75;95.58;92309.41;1057673;56;20659;-85
2021/01/04 00:45:48;;;;;;;;;;;;;;;-2.81;95.20;92314.16;1059414;56;20170;-84
2021/01/04 00:46:54;;;;;;;;;;;;;;;-2.74;95.19;92308.31;1063686;56;20149;-83
2021/01/04 00:47:57;;;;;;;;;;;;;;;-2.70;94.81;92307.25;1066021;55;20183;-86
2021/01/04 00:49:16;;;;;;;;;;;;;;;-2.78;94.79;92311.59;1063588;56;20666;-83
2021/01/04 00:50:22;;;;;;;;;;;;;;;-2.84;95.22;92310.41;1064025;55;20197;-83
2021/01/04 00:51:30;;;;;;;;;;;;;;;-2.76;94.90;92307.91;1063310;56;20181;-83
2021/01/04 00:52:48;;;;;;;;;;;;;;;-2.72;95.59;92301.63;1061883;55;20642;-83
2021/01/04 00:53:50;;;;;;;;;;;;;;;-2.71;94.94;92308.34;1061870;56;20182;-84
2021/01/04 00:54:51;;;;;;;;;;;;;;;-2.71;94.86;92308.34;1063805;55;20189;-85
2021/01/04 00:55:58;;;;;;;;;;;;;;;-2.74;95.18;92310.91;1063346;56;20150;-84
2021/01/04 00:56:58;;;;;;;;;;;;;;;-2.64;94.77;92310.31;1063915;55;20223;-85
2021/01/04 00:58:12;;;;;;;;;;;;;;;-2.69;95.04;92308.75;1063521;56;20659;-84
2021/01/04 00:59:15;;;;;;;;;;;;;;;-2.70;95.45;92311.72;1062228;55;20159;-83
2021/01/04 01:00:19;;;;;;;;;;;;;;;-2.72;95.36;92312.09;1063520;56;20243;-83
2021/01/04 01:01:38;;;;;;;;;;;;;;;-2.71;95.31;92310.97;1061469;56;20166;-85
2021/01/04 01:02:41;;;;;;;;;;;;;;;-2.66;94.76;92309.91;1060441;56;20185;-85
2021/01/04 01:03:57;;;;;;;;;;;;;;;-2.69;95.12;92310.59;1061542;55;20158;-84
2021/01/04 01:05:17;;;;;;;;;;;;;;;-2.65;94.88;92311.41;1066078;55;20695;-83
2021/01/04 01:06:34;;;;;;;;;;;;;;;-2.72;95.13;92306.84;1065528;55;20162;-82
2021/01/04 01:07:53;;;;;;;;;;;;;;;-2.81;94.76;92306.31;1063994;55;20720;-82
2021/01/04 01:08:55;;;;;;;;;;;;;;;-2.76;95.62;92311.28;1063976;55;20186;-85
2021/01/04 01:09:55;;;;;;;;;;;;;;;-2.85;95.89;92313.38;1061331;56;20240;-84
2021/01/04 01:10:56;;;;;;;;;;;;;;;-2.90;95.47;92319.63;1061314;56;20158;-83
2021/01/04 01:12:07;;;;;;;;;;;;;;;-2.86;95.52;92322.31;1063544;56;20192;-82
2021/01/04 01:13:08;;;;;;;;;;;;;;;-2.80;95.31;92321.69;1065967;55;21137;-83
2021/01/04 01:14:19;;;;;;;;;;;;;;;-2.90;95.96;92322.25;1065682;55;20200;-84
2021/01/04 01:15:23;;;;;;;;;;;;;;;-2.91;96.04;92315.53;1061646;56;20158;-85
2021/01/04 01:16:23;;;;;;;;;;;;;;;-2.84;95.76;92318.25;1061460;55;20661;-83
2021/01/04 01:17:42;;;;;;;;;;;;;;;-2.86;96.06;92317.84;1063401;56;20185;-83
2021/01/04 01:19:07;;;;;;;;;;;;;;;-2.85;96.24;92314.12;1064134;55;20199;-83
2021/01/04 01:20:12;;;;;;;;;;;;;;;-2.82;95.41;92320.50;1061939;56;20217;-84
2021/01/04 01:21:13;;;;;;;;;;;;;;;-2.84;95.41;92320.88;1061662;55;20243;-84
2021/01/04 01:22:23;;;;;;;;;;;;;;;-2.88;95.26;92322.66;1065460;55;20704;-83
2021/01/04 01:23:24;;;;;;;;;;;;;;;-2.87;95.81;92315.59;1065554;55;20661;-85
2021/01/04 01:24:25;;;;;;;;;;;;;;;-2.88;95.42;92321.91;1063458;56;20178;-87
2021/01/04 01:25:28;;;;;;;;;;;;;;;-2.80;96.20;92323.53;1061360;55;20192;-85
2021/01/04 01:26:41;;;;;;;;;;;;;;;-2.81;95.49;92319.41;1063633;55;20182;-82
2021/01/04 01:27:54;;;;;;;;;;;;;;;-2.85;95.35;92326.47;1066127;55;20162;-84
2021/01/04 01:28:57;;;;;;;;;;;;;;;-2.83;95.38;92324.22;1063456;56;20744;-84
2021/01/04 01:30:16;;;;;;;;;;;;;;;-2.82;95.69;92323.13;1061606;55;20548;-85
2021/01/04 01:31:30;;;;;;;;;;;;;;;-2.77;96.07;92330.66;1064164;55;20677;-83
2021/01/04 01:32:48;;;;;;;;;;;;;;;-2.77;96.06;92330.66;1061705;56;20285;-83
2021/01/04 01:33:48;;;;;;;;;;;;;;;-2.81;95.52;92324.63;1064899;55;20185;-83
2021/01/04 01:34:55;;;;;;;;;;;;;;;-2.79;95.69;92331.03;1063464;56;20142;-85
2021/01/04 01:36:14;;;;;;;;;;;;;;;-2.76;95.87;92323.59;1059771;56;20158;-84
2021/01/04 01:37:21;;;;;;;;;;;;;;;-2.79;95.23;92327.66;1064715;55;21092;-84
2021/01/04 01:38:35;;;;;;;;;;;;;;;-2.85;95.97;92329.81;1067809;55;20165;-82
2021/01/04 01:39:53;;;;;;;;;;;;;;;-2.79;95.95;92331.03;1065667;55;20192;-85
2021/01/04 01:41:12;;;;;;;;;;;;;;;-2.64;95.52;92320.75;1062808;55;20658;-84
2021/01/04 01:42:16;;;;;;;;;;;;;;;-2.83;95.75;92332.06;1064409;55;20169;-84
2021/01/04 01:43:22;;;;;;;;;;;;;;;-2.81;95.50;92337.69;1063850;55;20194;-84
2021/01/04 01:44:38;;;;;;;;;;;;;;;-2.79;95.69;92331.03;1064215;55;20970;-83
2021/01/04 01:45:41;;;;;;;;;;;;;;;-2.84;95.89;92333.19;1065958;55;20165;-83
2021/01/04 01:46:59;;;;;;;;;;;;;;;-2.81;95.38;92333.25;1066133;55;20157;-86
2021/01/04 01:48:03;;;;;;;;;;;;;;;-2.71;95.53;92324.03;1063815;55;20255;-83
2021/01/04 01:49:23;;;;;;;;;;;;;;;-2.76;95.37;92331.44;1061796;55;20613;-83
2021/01/04 01:50:36;;;;;;;;;;;;;;;-2.83;96.38;92330.22;1064187;55;20288;-84
2021/01/04 01:51:46;;;;;;;;;;;;;;;-2.85;96.64;92329.06;1066296;55;20157;-85
2021/01/04 01:53:09;;;;;;;;;;;;;;;-2.83;96.06;92332.81;1065675;55;20180;-84
2021/01/04 01:54:18;;;;;;;;;;;;;;;-2.87;96.00;92331.28;1062849;55;20634;-83
2021/01/04 01:55:22;;;;;;;;;;;;;;;-2.82;96.50;92328.34;1063710;55;21138;-85
2021/01/04 01:56:28;;;;;;;;;;;;;;;-2.78;95.65;92323.94;1063523;55;20205;-83
2021/01/04 01:57:47;;;;;;;;;;;;;;;-2.64;95.95;92321.50;1063681;55;20188;-84
2021/01/04 01:59:17;;;;;;;;;;;;;;;-2.59;94.71;92329.09;1064183;55;20215;-83
2021/01/04 02:00:28;;;;;;;;;;;;;;;-2.64;95.55;92329.38;1061180;55;20368;-83
2021/01/04 02:01:47;;;;;;;;;;;;;;;-2.67;95.26;92335.31;1062069;56;20197;-86
2021/01/04 02:02:53;;;;;;;;;;;;;;;-2.72;95.28;92327.78;1062827;55;20646;-85
2021/01/04 02:03:56;;;;;;;;;;;;;;;-2.73;95.24;92338.56;1063827;55;20166;-85
2021/01/04 02:05:09;;;;;;;;;;;;;;;-2.71;95.70;92329.28;1061605;56;20610;-83
2021/01/04 02:06:28;;;;;;;;;;;;;;;-2.65;95.97;92330.47;1060286;56;20193;-84
2021/01/04 02:07:34;;;;;;;;;;;;;;;-2.55;95.23;92329.12;1063048;55;20201;-82
2021/01/04 02:08:41;;;;;;;;;;;;;;;-2.58;95.22;92320.13;1064133;55;20165;-84
2021/01/04 02:10:04;;;;;;;;;;;;;;;-2.63;95.33;92327.53;1066145;55;20266;-84
2021/01/04 02:11:14;;;;;;;;;;;;;;;-2.63;95.63;92328.28;1065958;55;20157;-83
2021/01/04 02:12:20;;;;;;;;;;;;;;;-2.70;95.43;92328.16;1064063;55;20173;-84
2021/01/04 02:13:38;;;;;;;;;;;;;;;-2.73;95.32;92331.47;1065875;55;20256;-82
2021/01/04 02:14:45;;;;;;;;;;;;;;;-2.71;95.09;92316.19;1063832;55;20181;-85
2021/01/04 02:15:51;;;;;;;;;;;;;;;-2.65;95.11;92312.16;1062187;55;20292;-83
2021/01/04 02:17:01;;;;;;;;;;;;;;;-2.71;95.66;92316.19;1066060;55;20567;-83
2021/01/04 02:18:07;;;;;;;;;;;;;;;-2.70;94.94;92314.34;1063802;55;20205;-84
2021/01/04 02:19:18;;;;;;;;;;;;;;;-2.71;95.83;92323.28;1064227;55;20222;-83
2021/01/04 02:20:22;;;;;;;;;;;;;;;-2.81;96.28;92317.56;1063794;55;20193;-84
2021/01/04 02:21:42;;;;;;;;;;;;;;;-2.75;95.60;92319.88;1061642;56;20588;-84
2021/01/04 02:23:01;;;;;;;;;;;;;;;-2.75;95.30;92317.25;1062990;55;20218;-84
2021/01/04 02:24:01;;;;;;;;;;;;;;;-2.76;96.03;92321.72;1064360;55;20187;-83
2021/01/04 02:25:02;;;;;;;;;;;;;;;-2.79;96.37;92323.19;1065895;55;20295;-83
2021/01/04 02:26:18;;;;;;;;;;;;;;;-2.75;96.79;92328.47;1065890;55;20181;-83
2021/01/04 02:27:30;;;;;;;;;;;;;;;-2.70;96.38;92316.94;1066405;55;20215;-84
2021/01/04 02:28:32;;;;;;;;;;;;;;;-2.66;95.60;92310.66;1065932;55;20626;-85
2021/01/04 02:29:33;;;;;;;;;;;;;;;-2.68;95.47;92320.72;1063807;55;20650;-84
2021/01/04 02:30:33;;;;;;;;;;;;;;;-2.70;95.57;92315.09;1063845;55;20259;-83
2021/01/04 02:31:36;;;;;;;;;;;;;;;-2.69;95.05;92319.22;1063712;55;20749;-83
2021/01/04 02:32:37;;;;;;;;;;;;;;;-2.56;94.85;92317.91;1065889;55;20741;-83
2021/01/04 02:33:37;;;;;;;;;;;;;;;-2.63;94.70;92317.81;1065935;55;20238;-85
2021/01/04 02:34:43;;;;;;;;;;;;;;;-2.68;95.01;92317.34;1061524;56;20170;-82
2021/01/04 02:35:45;;;;;;;;;;;;;;;-2.69;95.07;92313.97;1061745;55;20162;-85
2021/01/04 02:36:47;;;;;;;;;;;;;;;-2.76;95.73;92326.97;1065921;55;20590;-84
2021/01/04 02:37:48;;;;;;;;;;;;;;;-2.69;95.29;92319.22;1068077;55;20165;-83
2021/01/04 02:38:56;;;;;;;;;;;;;;;-2.69;95.56;92319.22;1063661;55;20610;-84
2021/01/04 02:40:06;;;;;;;;;;;;;;;-2.76;95.29;92319.13;1064300;55;20246;-82
2021/01/04 02:41:07;;;;;;;;;;;;;;;-2.69;95.04;92326.31;1065991;55;20169;-84
2021/01/04 02:42:07;;;;;;;;;;;;;;;-2.65;95.80;92322.62;1061523;56;20188;-82
2021/01/04 02:43:08;;;;;;;;;;;;;;;-2.60;95.42;92324.19;1059595;56;20181;-84
2021/01/04 02:44:08;;;;;;;;;;;;;;;-2.69;94.74;92319.22;1059339;56;20178;-87
2021/01/04 02:45:12;;;;;;;;;;;;;;;-2.71;95.34;92323.28;1061546;56;20256;-84
2021/01/04 02:46:16;;;;;;;;;;;;;;;-2.68;94.89;92328.56;1065956;55;20165;-84
2021/01/04 02:47:27;;;;;;;;;;;;;;;-2.58;95.08;92325.34;1063710;55;20177;-83
2021/01/04 02:48:48;;;;;;;;;;;;;;;-2.61;94.69;92326.06;1062453;55;20638;-83
2021/01/04 02:50:12;;;;;;;;;;;;;;;-2.63;95.11;92330.91;1062181;56;20161;-83
2021/01/04 02:51:20;;;;;;;;;;;;;;;-2.55;95.16;92324.66;1059890;56;20298;-84
2021/01/04 02:52:37;;;;;;;;;;;;;;;-2.50;94.86;92323.59;1063783;55;20158;-82
2021/01/04 02:53:38;;;;;;;;;;;;;;;-2.58;94.49;92327.97;1062110;56;20198;-85
2021/01/04 02:54:47;;;;;;;;;;;;;;;-2.70;94.25;92336.00;1059351;56;20636;-84
2021/01/04 02:56:02;;;;;;;;;;;;;;;-2.61;94.79;92325.31;1061911;56;20181;-83
2021/01/04 02:57:12;;;;;;;;;;;;;;;-2.59;94.69;92331.69;1062029;56;20170;-84
2021/01/04 02:58:13;;;;;;;;;;;;;;;-2.67;95.13;92327.47;1064367;55;20162;-85
2021/01/04 02:59:30;;;;;;;;;;;;;;;-2.64;94.73;92328.63;1065792;55;20157;-83
2021/01/04 03:00:31;;;;;;;;;;;;;;;-2.70;95.79;92325.53;1064172;55;20204;-83
2021/01/04 03:01:42;;;;;;;;;;;;;;;-2.76;95.65;92328.81;1063596;55;20177;-85
2021/01/04 03:02:46;;;;;;;;;;;;;;;-2.79;95.40;92336.25;1064162;55;20650;-84
2021/01/04 03:03:47;;;;;;;;;;;;;;;-2.81;95.47;92335.88;1063806;55;20200;-84
2021/01/04 03:04:49;;;;;;;;;;;;;;;-2.80;95.56;92332.13;1065876;55;20164;-83
2021/01/04 03:05:50;;;;;;;;;;;;;;;-2.82;96.46;92333.59;1067938;55;20161;-85
2021/01/04 03:07:02;;;;;;;;;;;;;;;-2.84;95.62;92333.19;1065866;55;20579;-84
2021/01/04 03:08:02;;;;;;;;;;;;;;;-2.89;96.19;92334.25;1066227;55;20184;-84
2021/01/04 03:09:06;;;;;;;;;;;;;;;-2.90;95.68;92332.72;1065722;55;20205;-86
2021/01/04 03:10:16;;;;;;;;;;;;;;;-2.87;95.63;92329.41;1065803;55;20157;-83
2021/01/04 03:11:17;;;;;;;;;;;;;;;-2.74;95.67;92337.06;1062221;55;20166;-82
2021/01/04 03:12:23;;;;;;;;;;;;;;;-2.72;95.92;92340.84;1061447;55;20162;-82
2021/01/04 03:13:30;;;;;;;;;;;;;;;-2.76;95.85;92334.81;1059587;56;20151;-83
2021/01/04 03:14:34;;;;;;;;;;;;;;;-2.64;95.45;92333.84;1063744;55;20174;-85
2021/01/04 03:15:44;;;;;;;;;;;;;;;-2.69;94.72;92328.91;1061592;56;20587;-82
2021/01/04 03:16:57;;;;;;;;;;;;;;;-2.75;94.44;92325.84;1062208;55;20193;-83
2021/01/04 03:18:16;;;;;;;;;;;;;;;-2.77;94.92;92333.28;1063672;55;20188;-85
2021/01/04 03:19:21;;;;;;;;;;;;;;;-2.82;95.08;92329.09;1060679;56;20200;-84
2021/01/04 03:20:24;;;;;;;;;;;;;;;-2.82;95.83;92338.81;1061664;55;20249;-83
2021/01/04 03:21:25;;;;;;;;;;;;;;;-2.84;95.38;92330.56;1065887;55;20256;-84
2021/01/04 03:22:27;;;;;;;;;;;;;;;-2.79;95.33;92328.41;1063688;55;20176;-83
2021/01/04 03:23:29;;;;;;;;;;;;;;;-2.82;96.06;92329.09;1059427;56;20265;-83
2021/01/04 03:24:30;;;;;;;;;;;;;;;-2.82;95.47;92331.72;1059524;56;20669;-83
2021/01/04 03:25:35;;;;;;;;;;;;;;;-2.90;95.41;92332.72;1061603;55;20166;-83
2021/01/04 03:26:45;;;;;;;;;;;;;;;-2.81;95.89;92335.09;1061773;56;20181;-84
2021/01/04 03:27:46;;;;;;;;;;;;;;;-2.83;95.58;92332.06;1062350;55;20214;-82
2021/01/04 03:28:47;;;;;;;;;;;;;;;-2.82;95.74;92336.19;1061608;56;20666;-83
2021/01/04 03:29:47;;;;;;;;;;;;;;;-2.82;95.23;92330.97;1063507;55;20641;-86
2021/01/04 03:30:48;;;;;;;;;;;;;;;-2.88;95.36;92322.66;1063627;55;20149;-82
2021/01/04 03:31:49;;;;;;;;;;;;;;;-2.87;96.26;92326.78;1061511;56;20161;-83
2021/01/04 03:32:49;;;;;;;;;;;;;;;-2.85;95.65;92326.47;1061561;56;20197;-84
2021/01/04 03:33:50;;;;;;;;;;;;;;;-2.84;95.75;92325.34;1065757;55;20222;-84
2021/01/04 03:34:50;;;;;;;;;;;;;;;-2.87;95.36;92326.78;1065934;55;20165;-85
2021/01/04 03:35:51;;;;;;;;;;;;;;;-2.77;95.27;92330.66;1063488;55;20241;-83
2021/01/04 03:36:51;;;;;;;;;;;;;;;-2.84;95.93;92327.97;1061506;56;20150;-83
2021/01/04 03:37:52;;;;;;;;;;;;;;;-2.76;95.21;92328.81;1061675;56;20220;-84
2021/01/04 03:38:52;;;;;;;;;;;;;;;-2.79;95.88;92325.03;1063675;55;20630;-83
2021/01/04 03:39:53;;;;;;;;;;;;;;;-2.82;95.18;92329.09;1065608;55;20172;-84
2021/01/04 03:40:53;;;;;;;;;;;;;;;-2.77;95.33;92330.66;1063563;55;20162;-84
2021/01/04 03:41:55;;;;;;;;;;;;;;;-2.81;95.62;92320.16;1063834;55;20201;-83
2021/01/04 03:42:55;;;;;;;;;;;;;;;-2.81;95.80;92333.25;1061555;56;20189;-85
2021/01/04 03:43:56;;;;;;;;;;;;;;;-2.75;94.87;92322.50;1061640;56;20150;-85
2021/01/04 03:44:56;;;;;;;;;;;;;;;-2.64;94.63;92318.91;1065792;55;20154;-84
2021/01/04 03:45:57;;;;;;;;;;;;;;;-2.73;94.73;92325.50;1065936;55;20585;-83
2021/01/04 03:46:58;;;;;;;;;;;;;;;-2.73;94.74;92317.66;1061631;56;20162;-83
2021/01/04 03:47:58;;;;;;;;;;;;;;;-2.76;95.17;92323.59;1063665;55;20181;-83
2021/01/04 03:48:59;;;;;;;;;;;;;;;-2.75;94.88;92327.72;1061439;56;20162;-84
2021/01/04 03:50:03;;;;;;;;;;;;;;;-2.81;95.10;92325.41;1059442;56;20281;-86
2021/01/04 03:51:03;;;;;;;;;;;;;;;-2.84;95.65;92322.72;1061424;55;20665;-84
2021/01/04 03:52:04;;;;;;;;;;;;;;;-2.78;95.75;92322.06;1065806;55;20157;-84
2021/01/04 03:53:05;;;;;;;;;;;;;;;-2.71;95.00;92320.69;1065736;55;20161;-83
2021/01/04 03:54:07;;;;;;;;;;;;;;;-2.70;94.79;92320.31;1065948;55;20165;-84
2021/01/04 03:55:08;;;;;;;;;;;;;;;-2.72;94.18;92317.31;1063661;55;20173;-83
2021/01/04 03:56:19;;;;;;;;;;;;;;;-2.71;94.91;92325.91;1061542;56;20166;-84
2021/01/04 03:57:19;;;;;;;;;;;;;;;-2.76;96.01;92320.97;1063655;55;20189;-84
2021/01/04 03:58:20;;;;;;;;;;;;;;;-2.86;95.92;92320.44;1059349;56;20154;-83
2021/01/04 03:59:21;;;;;;;;;;;;;;;-2.87;96.43;92323.41;1061425;56;20154;-85
2021/01/04 04:00:22;;;;;;;;;;;;;;;-2.89;95.72;92323.03;1065641;55;20184;-83
2021/01/04 04:01:23;;;;;;;;;;;;;;;-2.93;96.12;92317.00;1063616;55;20162;-83
2021/01/04 04:02:24;;;;;;;;;;;;;;;-2.87;95.96;92320.81;1063732;55;20693;-84
2021/01/04 04:03:24;;;;;;;;;;;;;;;-2.85;96.35;92314.12;1063519;55;21182;-82
2021/01/04 04:04:27;;;;;;;;;;;;;;;-2.81;96.04;92322.00;1066043;55;20631;-83
2021/01/04 04:05:27;;;;;;;;;;;;;;;-2.73;95.59;92320.25;1063662;55;20195;-84
2021/01/04 04:06:28;;;;;;;;;;;;;;;-2.76;95.43;92321.72;1063731;55;20206;-82
2021/01/04 04:07:28;;;;;;;;;;;;;;;-2.79;95.44;92317.94;1065729;55;20154;-83
2021/01/04 04:08:29;;;;;;;;;;;;;;;-2.80;96.33;92326.91;1063609;55;20162;-84
2021/01/04 04:09:29;;;;;;;;;;;;;;;-2.67;95.49;92321.50;1063531;55;20154;-84
2021/01/04 04:10:30;;;;;;;;;;;;;;;-2.66;95.08;92325.59;1065822;55;20709;-84
2021/01/04 04:11:32;;;;;;;;;;;;;;;-2.65;95.27;92325.25;1067875;55;20156;-84
2021/01/04 04:12:33;;;;;;;;;;;;;;;-2.59;94.98;92326.47;1063635;55;20628;-83
2021/01/04 04:13:33;;;;;;;;;;;;;;;-2.66;94.39;92315.91;1063571;55;20580;-85
2021/01/04 04:14:34;;;;;;;;;;;;;;;-2.75;95.19;92317.25;1065763;55;20161;-84
2021/01/04 04:15:34;;;;;;;;;;;;;;;-2.76;95.41;92324.34;1063546;55;20201;-83
2021/01/04 04:16:36;;;;;;;;;;;;;;;-2.74;95.39;92316.16;1063588;55;20259;-84
2021/01/04 04:17:37;;;;;;;;;;;;;;;-2.75;96.17;92319.88;1065697;55;20193;-84
2021/01/04 04:18:37;;;;;;;;;;;;;;;-2.78;95.95;92326.53;1063542;55;20154;-83
2021/01/04 04:19:38;;;;;;;;;;;;;;;-2.75;95.97;92325.09;1063559;55;20181;-82
2021/01/04 04:20:38;;;;;;;;;;;;;;;-2.76;96.43;92320.97;1065901;55;20184;-83
2021/01/04 04:21:39;;;;;;;;;;;;;;;-2.85;95.81;92319.38;1065802;55;20169;-83
2021/01/04 04:22:39;;;;;;;;;;;;;;;-2.81;96.46;92319.41;1063536;55;20181;-83
2021/01/04 04:23:40;;;;;;;;;;;;;;;-2.84;95.87;92325.34;1063741;55;20161;-84
2021/01/04 04:24:42;;;;;;;;;;;;;;;-2.77;96.27;92330.66;1065702;55;20169;-87
2021/01/04 04:25:42;;;;;;;;;;;;;;;-2.78;96.53;92331.78;1063491;55;20226;-85
2021/01/04 04:26:43;;;;;;;;;;;;;;;-2.69;95.38;92323.69;1061397;56;20154;-83
2021/01/04 04:27:43;;;;;;;;;;;;;;;-2.71;95.08;92326.66;1063573;55;20595;-84
2021/01/04 04:28:44;;;;;;;;;;;;;;;-2.81;95.32;92325.41;1063659;55;20274;-83
2021/01/04 04:29:45;;;;;;;;;;;;;;;-2.77;94.90;92320.19;1061432;56;20591;-84
2021/01/04 04:30:45;;;;;;;;;;;;;;;-2.72;94.83;92327.00;1061544;55;20193;-84
2021/01/04 04:31:47;;;;;;;;;;;;;;;-2.69;94.87;92334.91;1065694;55;20169;-85
2021/01/04 04:32:50;;;;;;;;;;;;;;;-2.71;95.01;92336.38;1065890;55;20633;-83
2021/01/04 04:33:51;;;;;;;;;;;;;;;-2.83;95.71;92330.22;1063736;55;20253;-85
2021/01/04 04:34:52;;;;;;;;;;;;;;;-2.75;95.99;92328.47;1061331;56;20177;-83
2021/01/04 04:35:52;;;;;;;;;;;;;;;-2.58;95.11;92330.59;1061285;56;20639;-85
2021/01/04 04:36:52;;;;;;;;;;;;;;;-2.57;94.39;92326.84;1061331;56;20142;-87
2021/01/04 04:37:53;;;;;;;;;;;;;;;-2.70;94.95;92333.41;1063669;56;20158;-83
2021/01/04 04:38:53;;;;;;;;;;;;;;;-2.69;95.42;92336.75;1065714;55;20184;-84
2021/01/04 04:39:54;;;;;;;;;;;;;;;-2.72;95.39;92333.00;1065730;55;20250;-84
2021/01/04 04:40:55;;;;;;;;;;;;;;;-2.73;94.65;92338.56;1065745;55;20181;-83
2021/01/04 04:41:55;;;;;;;;;;;;;;;-2.76;95.14;92334.81;1065756;55;20258;-85
2021/01/04 04:42:59;;;;;;;;;;;;;;;-2.65;95.23;92335.72;1068167;55;20579;-84
2021/01/04 04:44:20;;;;;;;;;;;;;;;-2.69;95.42;92337.50;1063546;56;20153;-84
2021/01/04 04:45:20;;;;;;;;;;;;;;;-2.66;94.65;92336.81;1060077;56;20182;-85
2021/01/04 04:46:32;;;;;;;;;;;;;;;-2.74;94.64;92337.06;1061294;55;20687;-85
2021/01/04 04:47:51;;;;;;;;;;;;;;;-2.72;95.45;92335.63;1063514;56;20243;-87
2021/01/04 04:48:57;;;;;;;;;;;;;;;-2.73;94.42;92335.94;1065005;55;20229;-84
2021/01/04 04:50:12;;;;;;;;;;;;;;;-2.63;95.41;92332.75;1065608;55;20720;-84
2021/01/04 04:51:21;;;;;;;;;;;;;;;-2.77;95.77;92328.03;1065905;55;20161;-85
2021/01/04 04:52:28;;;;;;;;;;;;;;;-2.79;95.83;92330.28;1065392;55;20176;-82
2021/01/04 04:53:28;;;;;;;;;;;;;;;-2.79;96.89;92327.66;1061599;56;20162;-83
2021/01/04 04:54:29;;;;;;;;;;;;;;;-2.83;96.62;92334.69;1061350;56;20587;-83
2021/01/04 04:55:41;;;;;;;;;;;;;;;-2.84;96.81;92328.72;1063596;56;20681;-83
2021/01/04 04:57:00;;;;;;;;;;;;;;;-2.75;96.35;92328.47;1061409;56;20161;-85
2021/01/04 04:58:19;;;;;;;;;;;;;;;-2.83;96.32;92326.84;1062774;55;20703;-85
2021/01/04 04:59:37;;;;;;;;;;;;;;;-2.88;96.39;92327.16;1065163;55;20173;-85
2021/01/04 05:00:57;;;;;;;;;;;;;;;-2.91;96.39;92325.97;1062071;56;20726;-84
2021/01/04 05:02:06;;;;;;;;;;;;;;;-2.90;95.76;92331.97;1060028;56;20629;-83
2021/01/04 05:03:25;;;;;;;;;;;;;;;-2.94;96.38;92333.75;1064234;55;20192;-83
2021/01/04 05:04:33;;;;;;;;;;;;;;;-2.83;95.12;92329.47;1063071;56;20237;-83
2021/01/04 05:05:48;;;;;;;;;;;;;;;-2.74;95.59;92335.19;1057602;56;20178;-84
2021/01/04 05:06:48;;;;;;;;;;;;;;;-2.82;95.06;92330.97;1060271;56;20189;-83
2021/01/04 05:07:53;;;;;;;;;;;;;;;-2.68;94.44;92333.78;1059187;56;20264;-84
2021/01/04 05:08:54;;;;;;;;;;;;;;;-2.67;93.85;92332.69;1057445;56;20206;-84
2021/01/04 05:09:59;;;;;;;;;;;;;;;-2.72;94.34;92340.06;1061321;56;20192;-84
2021/01/04 05:11:00;;;;;;;;;;;;;;;-2.86;95.39;92333.53;1063396;56;20173;-84
2021/01/04 05:12:03;;;;;;;;;;;;;;;-2.88;95.44;92335.00;1061433;56;20169;-83
2021/01/04 05:13:23;;;;;;;;;;;;;;;-2.79;95.55;92335.50;1061577;56;20226;-86
2021/01/04 05:14:27;;;;;;;;;;;;;;;-2.58;95.18;92333.19;1059822;56;20151;-83
2021/01/04 05:15:32;;;;;;;;;;;;;;;-2.63;93.85;92338.75;1064096;55;20240;-84
2021/01/04 05:17:01;;;;;;;;;;;;;;;-2.74;94.23;92340.44;1065809;55;20206;-84
2021/01/04 05:18:04;;;;;;;;;;;;;;;-2.86;94.90;92343.97;1060520;56;20185;-84
2021/01/04 05:19:47;;;;;;;;;;;;;;;-2.76;95.74;92339.28;1062204;55;20300;-84
2021/01/04 05:21:03;;;;;;;;;;;;;;;-2.75;95.76;92338.19;1059372;56;20363;-83
2021/01/04 05:22:14;;;;;;;;;;;;;;;-2.82;95.54;92347.41;1057124;56;20174;-83
2021/01/04 05:23:23;;;;;;;;;;;;;;;-2.82;95.56;92342.19;1057590;56;20221;-84
2021/01/04 05:24:24;;;;;;;;;;;;;;;-2.87;95.01;92339.09;1057551;56;20178;-84
2021/01/04 05:25:42;;;;;;;;;;;;;;;-2.82;95.24;92347.41;1054910;56;20190;-84
2021/01/04 05:26:52;;;;;;;;;;;;;;;-2.74;94.95;92345.66;1059681;56;20588;-84
2021/01/04 05:28:08;;;;;;;;;;;;;;;-2.79;94.46;92341.47;1064959;55;20162;-84
2021/01/04 05:29:35;;;;;;;;;;;;;;;-2.80;95.25;92342.59;1061624;56;20193;-85
2021/01/04 05:30:50;;;;;;;;;;;;;;;-2.72;94.79;92346.09;1061044;56;20186;-83
2021/01/04 05:31:50;;;;;;;;;;;;;;;-2.78;94.15;92343.00;1064309;55;20165;-85
2021/01/04 05:33:15;;;;;;;;;;;;;;;-2.75;94.65;92341.53;1063830;55;20161;-84
2021/01/04 05:34:53;;;;;;;;;;;;;;;-2.84;94.10;92341.78;1066110;55;20174;-85
2021/01/04 05:36:00;;;;;;;;;;;;;;;-2.89;94.74;92343.94;1054881;56;20180;-85
2021/01/04 05:37:00;;;;;;;;;;;;;;;-2.86;94.37;92336.13;1057216;56;20615;-85
2021/01/04 05:38:25;;;;;;;;;;;;;;;-2.78;94.88;92331.78;1059456;56;20201;-83
2021/01/04 05:39:32;;;;;;;;;;;;;;;-2.83;94.76;92338.06;1057159;56;20254;-84
2021/01/04 05:40:35;;;;;;;;;;;;;;;-2.80;94.74;92344.47;1057238;56;20179;-85
2021/01/04 05:41:44;;;;;;;;;;;;;;;-2.80;94.20;92341.84;1061779;55;20266;-85
2021/01/04 05:42:47;;;;;;;;;;;;;;;-2.83;94.80;92334.69;1061846;56;20591;-84
2021/01/04 05:44:05;;;;;;;;;;;;;;;-2.88;94.17;92345.44;1061718;56;20188;-84
2021/01/04 05:45:09;;;;;;;;;;;;;;;-2.83;94.37;92340.69;1062295;56;20165;-83
2021/01/04 05:46:23;;;;;;;;;;;;;;;-2.68;93.72;92328.56;1061719;56;20163;-83
2021/01/04 05:47:28;;;;;;;;;;;;;;;-2.71;93.72;92337.12;1059963;56;20159;-85
2021/01/04 05:48:47;;;;;;;;;;;;;;;-2.88;94.34;92338.34;1060034;56;20677;-83
2021/01/04 05:50:05;;;;;;;;;;;;;;;-2.76;94.11;92334.06;1062231;56;20205;-84